createdAt,value
2022-11-26T00:00:13.146Z,101305.03
2022-11-26T00:01:23.914Z,101309.75
2022-11-26T00:02:32.231Z,101317.53
2022-11-26T00:03:36.701Z,101321.41
2022-11-26T00:04:40.125Z,101321.66
2022-11-26T00:05:42.910Z,101321.03
2022-11-26T00:06:44.890Z,101325.75
2022-11-26T00:07:51.289Z,101320.44
2022-11-26T00:08:59.140Z,101324.41
2022-11-26T00:10:00.634Z,101319.91
2022-11-26T00:11:10.633Z,101324.63
2022-11-26T00:12:37.770Z,101329.38
2022-11-26T00:13:39.219Z,101332.41
2022-11-26T00:14:40.692Z,101333.50
2022-11-26T00:15:42.139Z,101333.72
2022-11-26T00:16:43.803Z,101330.94
2022-11-26T00:17:45.442Z,101338.41
2022-11-26T00:18:47.130Z,101334.78
2022-11-26T00:19:48.691Z,101341.44
2022-11-26T00:20:51.223Z,101338.66
2022-11-26T00:21:58.478Z,101348.72
2022-11-26T00:23:02.461Z,101348.72
2022-11-26T00:24:04.072Z,101353.44
2022-11-26T00:25:05.746Z,101354.31
2022-11-26T00:26:07.242Z,101360.72
2022-11-26T00:27:10.737Z,101357.09
2022-11-26T00:28:23.297Z,101348.72
2022-11-26T00:29:24.853Z,101358.19
2022-11-26T00:30:27.277Z,101352.34
2022-11-26T00:31:28.959Z,101348.97
2022-11-26T00:32:34.458Z,101363.75
2022-11-26T00:33:38.689Z,101364.59
2022-11-26T00:34:40.320Z,101355.38
2022-11-26T00:35:41.951Z,101362.06
2022-11-26T00:36:43.584Z,101372.34
2022-11-26T00:37:52.044Z,101377.09
2022-11-26T00:38:56.895Z,101378.78
2022-11-26T00:39:58.413Z,101373.69
2022-11-26T00:41:00.044Z,101375.88
2022-11-26T00:42:01.500Z,101376.94
2022-11-26T00:43:03.047Z,101363.00
2022-11-26T00:44:19.593Z,101375.25
2022-11-26T00:45:24.072Z,101370.75
2022-11-26T00:46:25.745Z,101371.84
2022-11-26T00:48:45.474Z,101378.50
2022-11-26T00:49:46.946Z,101374.00
2022-11-26T00:50:54.314Z,101383.44
2022-11-26T00:51:55.788Z,101385.63
2022-11-26T00:53:01.050Z,101385.03
2022-11-26T00:54:05.386Z,101384.41
2022-11-26T00:55:09.599Z,101389.97
2022-11-26T00:56:15.123Z,101396.63
2022-11-26T00:57:16.574Z,101395.19
2022-11-26T00:58:26.262Z,101387.66
2022-11-26T00:59:27.705Z,101390.66
2022-11-26T01:00:30.106Z,101395.38
2022-11-26T01:01:34.502Z,101385.31
2022-11-26T01:02:36.053Z,101393.69
2022-11-26T01:03:37.606Z,101389.81
2022-11-26T01:04:41.854Z,101378.66
2022-11-26T01:05:54.245Z,101394.34
2022-11-26T01:06:58.111Z,101396.88
2022-11-26T01:08:00.451Z,101398.81
2022-11-26T01:09:09.154Z,101394.94
2022-11-26T01:10:18.013Z,101400.50
2022-11-26T01:11:20.707Z,101404.16
2022-11-26T01:12:22.184Z,101399.44
2022-11-26T01:13:26.071Z,101404.16
2022-11-26T01:14:27.609Z,101401.38
2022-11-26T01:15:29.059Z,101403.31
2022-11-26T01:16:31.291Z,101407.78
2022-11-26T01:17:35.250Z,101406.09
2022-11-26T01:18:39.826Z,101416.38
2022-11-26T01:20:06.998Z,101418.31
2022-11-26T01:21:10.474Z,101411.06
2022-11-26T01:22:15.226Z,101417.69
2022-11-26T01:23:17.615Z,101417.69
2022-11-26T01:24:19.086Z,101420.47
2022-11-26T01:25:23.115Z,101428.81
2022-11-26T01:26:25.439Z,101424.34
2022-11-26T01:27:26.990Z,101422.03
2022-11-26T01:28:28.481Z,101434.03
2022-11-26T01:29:30.038Z,101427.59
2022-11-26T01:30:32.011Z,101427.84
2022-11-26T01:31:33.521Z,101438.75
2022-11-26T01:32:37.980Z,101437.03
2022-11-26T01:33:41.579Z,101434.88
2022-11-26T01:34:43.029Z,101434.25
2022-11-26T01:35:44.551Z,101438.75
2022-11-26T01:36:46.065Z,101434.25
2022-11-26T01:37:50.040Z,101446.25
2022-11-26T01:38:52.512Z,101440.69
2022-11-26T01:39:53.994Z,101439.84
2022-11-26T01:41:28.121Z,101438.75
2022-11-26T01:42:36.459Z,101435.34
2022-11-26T01:43:41.005Z,101449.03
2022-11-26T01:44:44.381Z,101449.03
2022-11-26T01:45:45.910Z,101450.97
2022-11-26T01:46:47.591Z,101453.75
2022-11-26T01:47:51.501Z,101457.63
2022-11-26T01:48:53.234Z,101452.06
2022-11-26T01:50:16.417Z,101452.91
2022-11-26T01:51:25.621Z,101453.38
2022-11-26T01:52:27.094Z,101452.28
2022-11-26T01:53:29.984Z,101459.81
2022-11-26T01:54:41.825Z,101456.41
2022-11-26T01:55:50.059Z,101465.00
2022-11-26T01:56:51.761Z,101469.06
2022-11-26T01:58:02.746Z,101466.28
2022-11-26T01:59:08.262Z,101466.75
2022-11-26T02:00:09.895Z,101468.09
2022-11-26T02:01:16.076Z,101466.16
2022-11-26T02:02:17.669Z,101460.81
2022-11-26T02:03:19.180Z,101472.81
2022-11-26T02:04:27.249Z,101477.53
2022-11-26T02:05:29.543Z,101470.88
2022-11-26T02:06:34.318Z,101470.63
2022-11-26T02:07:35.850Z,101470.63
2022-11-26T02:08:37.375Z,101464.22
2022-11-26T02:09:38.835Z,101469.78
2022-11-26T02:10:40.290Z,101475.34
2022-11-26T02:11:41.788Z,101474.50
2022-11-26T02:12:43.225Z,101473.41
2022-11-26T02:13:45.538Z,101467.00
2022-11-26T02:14:54.220Z,101475.34
2022-11-26T02:15:59.815Z,101485.66
2022-11-26T02:17:09.747Z,101480.06
2022-11-26T02:18:11.222Z,101480.94
2022-11-26T02:19:31.139Z,101490.13
2022-11-26T02:20:53.831Z,101495.69
2022-11-26T02:22:04.577Z,101491.22
2022-11-26T02:23:20.645Z,101491.22
2022-11-26T02:24:35.768Z,101495.94
2022-11-26T02:25:40.526Z,101487.81
2022-11-26T02:26:54.175Z,101500.03
2022-11-26T02:28:28.222Z,101491.28
2022-11-26T02:29:47.974Z,101496.22
2022-11-26T02:30:52.559Z,101498.63
2022-11-26T02:32:01.064Z,101506.97
2022-11-26T02:33:06.486Z,101499.72
2022-11-26T02:34:13.225Z,101504.66
2022-11-26T02:35:17.282Z,101508.53
2022-11-26T02:36:29.756Z,101510.66
2022-11-26T02:37:32.900Z,101508.72
2022-11-26T02:38:37.782Z,101508.97
2022-11-26T02:39:39.233Z,101507.88
2022-11-26T02:42:00.095Z,101513.44
2022-11-26T02:43:01.591Z,101508.97
2022-11-26T02:44:03.070Z,101513.44
2022-11-26T02:45:06.515Z,101514.53
2022-11-26T02:46:12.239Z,101514.53
2022-11-26T02:47:17.785Z,101509.44
2022-11-26T02:48:23.457Z,101515.84
2022-11-26T02:49:24.944Z,101521.66
2022-11-26T02:50:27.730Z,101517.16
2022-11-26T02:51:35.172Z,101518.03
2022-11-26T02:52:36.729Z,101517.59
2022-11-26T02:53:38.195Z,101526.19
2022-11-26T02:54:39.835Z,101511.19
2022-11-26T02:55:42.923Z,101520.63
2022-11-26T02:56:45.171Z,101524.47
2022-11-26T02:57:47.499Z,101527.47
2022-11-26T02:58:52.250Z,101524.06
2022-11-26T02:59:54.046Z,101531.78
2022-11-26T03:00:55.565Z,101531.78
2022-11-26T03:01:58.759Z,101535.44
2022-11-26T03:03:02.042Z,101530.94
2022-11-26T03:04:07.742Z,101529.00
2022-11-26T03:05:09.285Z,101539.31
2022-11-26T03:06:11.250Z,101533.50
2022-11-26T03:07:14.679Z,101531.41
2022-11-26T03:08:16.447Z,101536.13
2022-11-26T03:09:17.992Z,101536.59
2022-11-26T03:10:26.006Z,101533.81
2022-11-26T03:11:27.753Z,101533.56
2022-11-26T03:12:29.385Z,101536.13
2022-11-26T03:13:31.066Z,101538.69
2022-11-26T03:14:32.514Z,101539.53
2022-11-26T03:15:41.471Z,101532.88
2022-11-26T03:16:43.099Z,101527.31
2022-11-26T03:17:44.658Z,101538.22
2022-11-26T03:18:46.103Z,101534.56
2022-11-26T03:19:48.153Z,101529.88
2022-11-26T03:20:52.397Z,101538.22
2022-11-26T03:21:54.154Z,101529.00
2022-11-26T03:22:58.671Z,101535.19
2022-11-26T03:24:00.638Z,101532.41
2022-11-26T03:25:02.111Z,101535.19
2022-11-26T03:26:03.553Z,101531.78
2022-11-26T03:27:05.041Z,101527.31
2022-11-26T03:28:06.520Z,101532.88
2022-11-26T03:29:07.966Z,101531.78
2022-11-26T03:30:09.685Z,101530.94
2022-11-26T03:31:11.218Z,101535.66
2022-11-26T03:32:12.703Z,101528.16
2022-11-26T03:33:14.197Z,101528.38
2022-11-26T03:34:15.625Z,101532.25
2022-11-26T03:35:17.118Z,101535.91
2022-11-26T03:36:18.611Z,101530.31
2022-11-26T03:37:20.194Z,101527.31
2022-11-26T03:38:21.723Z,101528.38
2022-11-26T03:39:23.195Z,101524.53
2022-11-26T03:40:24.659Z,101532.72
2022-11-26T03:41:26.125Z,101539.38
2022-11-26T03:42:27.620Z,101524.56
2022-11-26T03:43:29.066Z,101524.81
2022-11-26T03:44:33.736Z,101527.59
2022-11-26T03:45:39.279Z,101527.59
2022-11-26T03:46:40.781Z,101526.50
2022-11-26T03:47:42.305Z,101533.16
2022-11-26T03:48:43.809Z,101532.28
2022-11-26T03:49:47.310Z,101527.66
2022-11-26T03:50:48.949Z,101523.41
2022-11-26T03:51:50.398Z,101521.22
2022-11-26T03:52:51.845Z,101522.94
2022-11-26T03:53:53.352Z,101521.84
2022-11-26T03:54:54.809Z,101520.78
2022-11-26T03:55:56.289Z,101524.41
2022-11-26T03:56:57.802Z,101526.56
2022-11-26T03:57:59.255Z,101530.22
2022-11-26T03:59:00.726Z,101526.34
2022-11-26T04:00:02.423Z,101525.50
2022-11-26T04:01:09.447Z,101524.63
2022-11-26T04:02:10.922Z,101521.22
2022-11-26T04:03:12.621Z,101514.81
2022-11-26T04:04:16.286Z,101526.81
2022-11-26T04:05:17.778Z,101519.53
2022-11-26T04:06:21.672Z,101525.09
2022-11-26T04:07:25.494Z,101517.84
2022-11-26T04:08:26.988Z,101522.75
2022-11-26T04:09:28.463Z,101510.38
2022-11-26T04:10:29.953Z,101510.59
2022-11-26T04:11:31.460Z,101509.59
2022-11-26T04:12:33.014Z,101506.81
2022-11-26T04:13:34.516Z,101509.78
2022-11-26T04:14:36.269Z,101507.22
2022-11-26T04:15:38.004Z,101506.38
2022-11-26T04:16:39.525Z,101508.31
2022-11-26T04:17:43.188Z,101502.97
2022-11-26T04:18:44.707Z,101514.09
2022-11-26T04:19:46.243Z,101516.03
2022-11-26T04:20:52.952Z,101503.81
2022-11-26T04:21:54.910Z,101516.66
2022-11-26T04:22:56.382Z,101520.53
2022-11-26T04:23:57.843Z,101518.44
2022-11-26T04:24:59.313Z,101522.28
2022-11-26T04:26:00.881Z,101519.72
2022-11-26T04:27:02.632Z,101521.84
2022-11-26T04:28:04.233Z,101526.56
2022-11-26T04:29:05.667Z,101522.31
2022-11-26T04:30:07.825Z,101524.94
2022-11-26T04:31:09.351Z,101521.31
2022-11-26T04:32:13.406Z,101519.44
2022-11-26T04:33:15.066Z,101532.28
2022-11-26T04:34:16.493Z,101538.47
2022-11-26T04:35:17.986Z,101537.16
2022-11-26T04:36:25.647Z,101532.22
2022-11-26T04:37:27.086Z,101536.50
2022-11-26T04:38:28.534Z,101539.06
2022-11-26T04:39:30.015Z,101532.44
2022-11-26T04:40:31.581Z,101538.63
2022-11-26T04:41:33.050Z,101536.69
2022-11-26T04:42:34.639Z,101533.91
2022-11-26T04:43:36.084Z,101537.53
2022-11-26T04:44:37.786Z,101541.16
2022-11-26T04:45:39.420Z,101539.47
2022-11-26T04:46:40.942Z,101536.06
2022-11-26T04:47:43.266Z,101538.00
2022-11-26T04:48:44.867Z,101548.88
2022-11-26T04:49:46.300Z,101524.16
2022-11-26T04:50:48.587Z,101542.06
2022-11-26T04:51:50.084Z,101548.50
2022-11-26T04:52:51.626Z,101547.63
2022-11-26T04:53:55.780Z,101554.91
2022-11-26T04:54:58.158Z,101556.59
2022-11-26T04:55:59.672Z,101553.19
2022-11-26T04:57:01.193Z,101564.34
2022-11-26T04:58:02.684Z,101558.16
2022-11-26T04:59:04.210Z,101562.25
2022-11-26T05:00:06.406Z,101561.63
2022-11-26T05:01:07.974Z,101558.84
2022-11-26T05:02:09.522Z,101566.09
2022-11-26T05:03:11.112Z,101567.81
2022-11-26T05:04:12.616Z,101580.63
2022-11-26T05:05:14.112Z,101576.78
2022-11-26T05:06:16.142Z,101573.16
2022-11-26T05:07:17.756Z,101577.63
2022-11-26T05:08:19.279Z,101583.19
2022-11-26T05:09:20.802Z,101575.94
2022-11-26T05:10:22.350Z,101585.97
2022-11-26T05:11:23.791Z,101590.69
2022-11-26T05:12:25.294Z,101587.91
2022-11-26T05:13:26.755Z,101595.16
2022-11-26T05:14:28.237Z,101592.38
2022-11-26T05:15:32.680Z,101589.38
2022-11-26T05:16:34.258Z,101594.94
2022-11-26T05:17:35.753Z,101593.03
2022-11-26T05:18:37.177Z,101595.81
2022-11-26T05:19:38.650Z,101591.94
2022-11-26T05:20:40.125Z,101600.28
2022-11-26T05:21:41.635Z,101595.81
2022-11-26T05:22:43.106Z,101611.63
2022-11-26T05:23:50.738Z,101598.41
2022-11-26T05:24:52.222Z,101603.75
2022-11-26T05:25:53.891Z,101601.44
2022-11-26T05:26:57.347Z,101615.31
2022-11-26T05:27:58.962Z,101617.03
2022-11-26T05:29:00.570Z,101616.19
2022-11-26T05:30:02.302Z,101620.25
2022-11-26T05:31:04.095Z,101623.03
2022-11-26T05:32:05.656Z,101614.91
2022-11-26T05:33:07.121Z,101619.84
2022-11-26T05:34:08.630Z,101620.94
2022-11-26T05:35:10.094Z,101631.63
2022-11-26T05:36:11.600Z,101628.19
2022-11-26T05:37:13.090Z,101635.91
2022-11-26T05:38:14.551Z,101630.97
2022-11-26T05:39:16.557Z,101634.84
2022-11-26T05:40:18.136Z,101629.94
2022-11-26T05:41:19.591Z,101633.81
2022-11-26T05:42:21.088Z,101634.66
2022-11-26T05:43:22.991Z,101639.13
2022-11-26T05:44:24.458Z,101629.72
2022-11-26T05:45:25.981Z,101631.44
2022-11-26T05:46:27.434Z,101633.34
2022-11-26T05:47:28.920Z,101630.34
2022-11-26T05:48:30.413Z,101631.22
2022-11-26T05:49:31.882Z,101632.91
2022-11-26T05:50:33.377Z,101636.53
2022-11-26T05:51:34.918Z,101636.53
2022-11-26T05:52:36.449Z,101642.09
2022-11-26T05:53:37.905Z,101641.03
2022-11-26T05:54:39.680Z,101640.19
2022-11-26T05:55:41.406Z,101642.75
2022-11-26T05:56:42.889Z,101639.31
2022-11-26T05:57:44.329Z,101639.31
2022-11-26T05:58:45.864Z,101645.97
2022-11-26T05:59:48.989Z,101646.19
2022-11-26T06:00:50.444Z,101648.13
2022-11-26T06:01:52.012Z,101641.06
2022-11-26T06:02:53.624Z,101652.19
2022-11-26T06:03:55.254Z,101654.53
2022-11-26T06:04:56.755Z,101661.16
2022-11-26T06:05:58.210Z,101659.91
2022-11-26T06:06:59.714Z,101665.47
2022-11-26T06:08:01.210Z,101662.03
2022-11-26T06:09:02.763Z,101669.75
2022-11-26T06:10:04.654Z,101662.50
2022-11-26T06:11:06.126Z,101660.78
2022-11-26T06:12:07.800Z,101668.22
2022-11-26T06:13:09.298Z,101665.69
2022-11-26T06:14:10.828Z,101670.59
2022-11-26T06:15:12.322Z,101672.97
2022-11-26T06:16:13.813Z,101670.19
2022-11-26T06:17:15.363Z,101665.06
2022-11-26T06:18:17.394Z,101675.13
2022-11-26T06:19:18.887Z,101674.47
2022-11-26T06:20:20.345Z,101674.91
2022-11-26T06:21:24.840Z,101668.91
2022-11-26T06:22:28.386Z,101674.28
2022-11-26T06:23:30.003Z,101677.91
2022-11-26T06:24:31.433Z,101679.41
2022-11-26T06:25:32.891Z,101677.69
2022-11-26T06:26:34.410Z,101675.31
2022-11-26T06:27:35.912Z,101672.97
2022-11-26T06:28:37.521Z,101679.84
2022-11-26T06:29:39.025Z,101678.34
2022-11-26T06:30:40.523Z,101683.88
2022-11-26T06:31:42.030Z,101687.53
2022-11-26T06:32:43.618Z,101687.72
2022-11-26T06:33:45.050Z,101688.97
2022-11-26T06:34:51.136Z,101684.47
2022-11-26T06:35:58.869Z,101692.41
2022-11-26T06:37:00.331Z,101682.13
2022-11-26T06:38:01.834Z,101684.25
2022-11-26T06:39:03.412Z,101688.56
2022-11-26T06:40:05.081Z,101688.56
2022-11-26T06:41:07.126Z,101686.84
2022-11-26T06:42:08.775Z,101690.69
2022-11-26T06:43:10.299Z,101690.69
2022-11-26T06:44:11.798Z,101690.28
2022-11-26T06:45:13.283Z,101689.19
2022-11-26T06:46:14.779Z,101694.13
2022-11-26T06:47:16.361Z,101696.50
2022-11-26T06:48:24.663Z,101695.41
2022-11-26T06:49:26.103Z,101692.44
2022-11-26T06:50:27.557Z,101687.31
2022-11-26T06:51:29.014Z,101693.06
2022-11-26T06:52:30.502Z,101692.03
2022-11-26T06:53:32.189Z,101697.16
2022-11-26T06:54:33.710Z,101695.84
2022-11-26T06:55:38.050Z,101706.09
2022-11-26T06:56:39.545Z,101707.81
2022-11-26T06:57:41.065Z,101709.53
2022-11-26T06:58:42.798Z,101711.03
2022-11-26T06:59:44.263Z,101716.16
2022-11-26T07:00:45.737Z,101715.94
2022-11-26T07:01:47.276Z,101713.78
2022-11-26T07:02:56.561Z,101722.75
2022-11-26T07:03:58.094Z,101720.66
2022-11-26T07:04:59.566Z,101721.28
2022-11-26T07:06:01.023Z,101722.78
2022-11-26T07:07:02.495Z,101722.78
2022-11-26T07:08:04.077Z,101722.78
2022-11-26T07:09:09.507Z,101724.72
2022-11-26T07:10:11.023Z,101718.94
2022-11-26T07:11:12.575Z,101718.09
2022-11-26T07:12:16.482Z,101718.94
2022-11-26T07:13:18.013Z,101718.94
2022-11-26T07:14:19.518Z,101727.91
2022-11-26T07:15:20.987Z,101727.06
2022-11-26T07:16:22.657Z,101724.50
2022-11-26T07:17:24.315Z,101727.28
2022-11-26T07:18:26.007Z,101726.19
2022-11-26T07:19:27.492Z,101730.91
2022-11-26T07:20:29.028Z,101726.63
2022-11-26T07:21:33.199Z,101726.63
2022-11-26T07:22:35.425Z,101729.84
2022-11-26T07:23:38.297Z,101734.72
2022-11-26T07:24:40.131Z,101739.44
2022-11-26T07:25:41.752Z,101738.38
2022-11-26T07:26:43.237Z,101740.28
2022-11-26T07:27:45.487Z,101736.66
2022-11-26T07:28:49.887Z,101738.19
2022-11-26T07:29:51.908Z,101744.81
2022-11-26T07:30:53.457Z,101745.84
2022-11-26T07:31:59.907Z,101739.44
2022-11-26T07:33:01.916Z,101745.84
2022-11-26T07:34:03.952Z,101746.91
2022-11-26T07:35:08.528Z,101755.66
2022-11-26T07:36:23.932Z,101742.84
2022-11-26T07:37:25.565Z,101749.69
2022-11-26T07:38:27.663Z,101752.69
2022-11-26T07:39:29.894Z,101753.31
2022-11-26T07:40:34.380Z,101760.41
2022-11-26T07:41:35.827Z,101758.25
2022-11-26T07:42:40.090Z,101762.56
2022-11-26T07:43:42.260Z,101762.75
2022-11-26T07:44:43.743Z,101756.53
2022-11-26T07:45:45.236Z,101756.97
2022-11-26T07:46:46.750Z,101764.25
2022-11-26T07:47:48.185Z,101759.31
2022-11-26T07:48:49.782Z,101755.69
2022-11-26T07:49:51.286Z,101771.06
2022-11-26T07:50:52.738Z,101768.06
2022-11-26T07:51:54.293Z,101772.34
2022-11-26T07:52:55.952Z,101768.50
2022-11-26T07:53:58.144Z,101777.50
2022-11-26T07:54:59.592Z,101769.78
2022-11-26T07:56:03.833Z,101772.34
2022-11-26T07:57:05.276Z,101777.06
2022-11-26T07:58:06.773Z,101781.75
2022-11-26T07:59:08.306Z,101777.50
2022-11-26T08:00:09.950Z,101775.34
2022-11-26T08:01:21.443Z,101774.50
2022-11-26T08:02:23.028Z,101785.41
2022-11-26T08:03:25.544Z,101787.53
2022-11-26T08:04:27.064Z,101781.13
2022-11-26T08:05:30.328Z,101785.41
2022-11-26T08:06:31.894Z,101777.91
2022-11-26T08:07:34.815Z,101787.75
2022-11-26T08:08:36.781Z,101776.19
2022-11-26T08:09:38.271Z,101775.94
2022-11-26T08:10:40.063Z,101780.47
2022-11-26T08:11:41.510Z,101780.03
2022-11-26T08:12:42.973Z,101780.44
2022-11-26T08:13:44.695Z,101784.31
2022-11-26T08:14:48.501Z,101781.53
2022-11-26T08:15:49.998Z,101756.06
2022-11-26T08:16:52.401Z,101776.59
2022-11-26T08:17:54.835Z,101780.00
2022-11-26T08:18:56.687Z,101777.44
2022-11-26T08:19:58.228Z,101785.97
2022-11-26T08:21:00.921Z,101788.31
2022-11-26T08:22:02.406Z,101792.41
2022-11-26T08:23:04.225Z,101782.31
2022-11-26T08:24:12.666Z,101791.91
2022-11-26T08:25:14.409Z,101791.91
2022-11-26T08:26:27.455Z,101782.09
2022-11-26T08:27:33.050Z,101784.63
2022-11-26T08:28:37.082Z,101790.22
2022-11-26T08:29:38.583Z,101788.06
2022-11-26T08:30:40.042Z,101787.59
2022-11-26T08:31:45.704Z,101785.25
2022-11-26T08:32:50.891Z,101787.38
2022-11-26T08:33:52.766Z,101793.13
2022-11-26T08:34:54.414Z,101788.84
2022-11-26T08:36:06.599Z,101790.56
2022-11-26T08:37:11.929Z,101795.28
2022-11-26T08:38:13.503Z,101798.91
2022-11-26T08:39:15.631Z,101789.03
2022-11-26T08:40:17.279Z,101792.00
2022-11-26T08:41:18.779Z,101792.41
2022-11-26T08:42:20.499Z,101794.78
2022-11-26T08:43:30.806Z,101792.63
2022-11-26T08:44:42.505Z,101791.78
2022-11-26T08:45:44.367Z,101796.03
2022-11-26T08:46:45.864Z,101789.16
2022-11-26T08:47:50.078Z,101791.09
2022-11-26T08:48:54.749Z,101781.47
2022-11-26T08:49:56.507Z,101798.97
2022-11-26T08:51:01.914Z,101800.91
2022-11-26T08:52:03.518Z,101803.69
2022-11-26T08:53:04.951Z,101802.84
2022-11-26T08:54:10.906Z,101809.66
2022-11-26T08:55:15.126Z,101811.75
2022-11-26T08:56:19.593Z,101811.34
2022-11-26T08:57:21.566Z,101801.44
2022-11-26T08:58:23.277Z,101803.31
2022-11-26T08:59:27.686Z,101804.38
2022-11-26T09:00:29.464Z,101805.16
2022-11-26T09:01:32.540Z,101806.69
2022-11-26T09:02:36.980Z,101811.34
2022-11-26T09:03:38.459Z,101810.25
2022-11-26T09:04:40.274Z,101810.66
2022-11-26T09:05:54.562Z,101810.22
2022-11-26T09:06:56.055Z,101817.66
2022-11-26T09:08:00.750Z,101811.41
2022-11-26T09:09:15.047Z,101816.09
2022-11-26T09:10:17.008Z,101810.91
2022-11-26T09:11:18.523Z,101815.56
2022-11-26T09:12:20.034Z,101810.00
2022-11-26T09:13:21.726Z,101811.94
2022-11-26T09:14:31.356Z,101811.47
2022-11-26T09:15:35.232Z,101809.47
2022-11-26T09:16:36.832Z,101808.56
2022-11-26T09:17:38.391Z,101814.94
2022-11-26T09:18:39.913Z,101813.16
2022-11-26T09:19:41.493Z,101809.66
2022-11-26T09:20:43.035Z,101812.03
2022-11-26T09:21:44.881Z,101804.03
2022-11-26T09:22:46.388Z,101805.13
2022-11-26T09:23:48.170Z,101809.16
2022-11-26T09:24:49.694Z,101805.13
2022-11-26T09:25:51.231Z,101813.16
2022-11-26T09:26:53.354Z,101809.75
2022-11-26T09:27:57.274Z,101813.69
2022-11-26T09:28:58.833Z,101813.91
2022-11-26T09:30:00.342Z,101816.78
2022-11-26T09:31:02.070Z,101811.69
2022-11-26T09:33:25.711Z,101815.94
2022-11-26T09:34:27.853Z,101822.44
2022-11-26T09:35:29.412Z,101814.31
2022-11-26T09:36:30.954Z,101814.38
2022-11-26T09:37:34.722Z,101815.09
2022-11-26T09:38:39.483Z,101820.59
2022-11-26T09:39:49.903Z,101815.22
2022-11-26T09:40:57.471Z,101816.31
2022-11-26T09:42:09.088Z,101816.44
2022-11-26T09:43:17.345Z,101822.38
2022-11-26T09:44:37.389Z,101825.25
2022-11-26T09:45:43.365Z,101823.28
2022-11-26T09:47:10.395Z,101817.16
2022-11-26T09:48:12.697Z,101816.63
2022-11-26T09:49:14.767Z,101820.47
2022-11-26T09:50:16.209Z,101813.13
2022-11-26T09:51:20.391Z,101820.44
2022-11-26T09:52:24.030Z,101807.41
2022-11-26T09:53:26.299Z,101806.91
2022-11-26T09:54:29.607Z,101817.09
2022-11-26T09:55:34.926Z,101811.50
2022-11-26T09:56:36.465Z,101813.56
2022-11-26T09:57:46.032Z,101806.00
2022-11-26T09:59:01.786Z,101802.09
2022-11-26T10:00:04.885Z,101798.44
2022-11-26T10:01:06.751Z,101814.94
2022-11-26T10:02:12.685Z,101809.47
2022-11-26T10:03:15.189Z,101808.88
2022-11-26T10:04:27.408Z,101810.06
2022-11-26T10:05:37.732Z,101809.78
2022-11-26T10:06:51.246Z,101804.91
2022-11-26T10:08:08.086Z,101814.41
2022-11-26T10:09:09.699Z,101806.41
2022-11-26T10:10:14.230Z,101816.66
2022-11-26T10:11:22.021Z,101809.78
2022-11-26T10:12:32.229Z,101815.81
2022-11-26T10:13:53.184Z,101817.78
2022-11-26T10:15:00.428Z,101818.53
2022-11-26T10:16:05.861Z,101817.88
2022-11-26T10:17:16.326Z,101817.38
2022-11-26T10:18:30.050Z,101817.25
2022-11-26T10:19:39.095Z,101827.78
2022-11-26T10:20:59.391Z,101823.13
2022-11-26T10:22:01.398Z,101820.56
2022-11-26T10:23:04.176Z,101827.72
2022-11-26T10:24:23.868Z,101826.53
2022-11-26T10:25:29.165Z,101825.78
2022-11-26T10:26:34.312Z,101827.72
2022-11-26T10:27:36.513Z,101823.97
2022-11-26T10:28:53.253Z,101817.44
2022-11-26T10:29:55.945Z,101819.47
2022-11-26T10:30:59.364Z,101817.94
2022-11-26T10:32:02.089Z,101817.53
2022-11-26T10:33:03.615Z,101820.81
2022-11-26T10:34:08.507Z,101823.56
2022-11-26T10:35:13.871Z,101820.91
2022-11-26T10:36:20.784Z,101817.75
2022-11-26T10:37:23.365Z,101816.66
2022-11-26T10:38:24.893Z,101803.72
2022-11-26T10:39:27.494Z,101813.25
2022-11-26T10:40:29.554Z,101807.97
2022-11-26T10:41:33.217Z,101821.22
2022-11-26T10:42:42.056Z,101815.41
2022-11-26T10:43:43.659Z,101818.19
2022-11-26T10:44:45.171Z,101823.81
2022-11-26T10:45:56.623Z,101811.38
2022-11-26T10:46:58.632Z,101816.38
2022-11-26T10:48:36.406Z,101824.72
2022-11-26T10:49:40.780Z,101819.84
2022-11-26T10:50:47.842Z,101816.47
2022-11-26T10:51:50.137Z,101811.09
2022-11-26T10:52:52.165Z,101805.75
2022-11-26T10:54:00.364Z,101806.00
2022-11-26T10:55:10.760Z,101802.84
2022-11-26T10:56:13.359Z,101808.22
2022-11-26T10:57:16.012Z,101803.72
2022-11-26T10:58:19.464Z,101799.44
2022-11-26T10:59:28.866Z,101803.94
2022-11-26T11:00:41.078Z,101802.94
2022-11-26T11:01:43.459Z,101805.16
2022-11-26T11:02:47.529Z,101813.91
2022-11-26T11:04:07.752Z,101806.09
2022-11-26T11:05:09.976Z,101808.47
2022-11-26T11:06:12.888Z,101795.03
2022-11-26T11:07:33.535Z,101810.00
2022-11-26T11:08:35.223Z,101808.66
2022-11-26T11:09:43.095Z,101801.69
2022-11-26T11:10:57.323Z,101801.94
2022-11-26T11:12:18.137Z,101801.84
2022-11-26T11:13:19.863Z,101797.59
2022-11-26T11:14:27.968Z,101797.34
2022-11-26T11:15:31.242Z,101794.38
2022-11-26T11:16:39.651Z,101797.19
2022-11-26T11:17:41.372Z,101792.16
2022-11-26T11:18:56.078Z,101793.53
2022-11-26T11:19:59.077Z,101794.44
2022-11-26T11:21:03.591Z,101798.38
2022-11-26T11:22:05.576Z,101797.78
2022-11-26T11:23:10.487Z,101801.69
2022-11-26T11:24:27.137Z,101795.38
2022-11-26T11:25:34.356Z,101794.53
2022-11-26T11:26:43.503Z,101790.28
2022-11-26T11:27:45.136Z,101795.78
2022-11-26T11:28:47.767Z,101795.78
2022-11-26T11:29:49.393Z,101795.19
2022-11-26T11:30:58.676Z,101792.38
2022-11-26T11:32:04.559Z,101790.41
2022-11-26T11:33:10.136Z,101788.38
2022-11-26T11:34:12.919Z,101783.88
2022-11-26T11:35:20.328Z,101777.03
2022-11-26T11:36:28.968Z,101771.59
2022-11-26T11:37:30.469Z,101777.47
2022-11-26T11:38:33.126Z,101769.56
2022-11-26T11:39:35.272Z,101775.41
2022-11-26T11:40:41.083Z,101767.16
2022-11-26T11:41:44.502Z,101768.78
2022-11-26T11:42:56.474Z,101766.56
2022-11-26T11:44:06.115Z,101773.88
2022-11-26T11:45:17.362Z,101767.06
2022-11-26T11:46:37.458Z,101773.75
2022-11-26T11:47:45.135Z,101773.16
2022-11-26T11:48:47.102Z,101770.09
2022-11-26T11:49:50.742Z,101768.41
2022-11-26T11:50:55.028Z,101770.84
2022-11-26T11:52:03.618Z,101780.34
2022-11-26T11:53:13.725Z,101768.28
2022-11-26T11:54:27.410Z,101771.94
2022-11-26T11:55:32.986Z,101772.78
2022-11-26T11:56:39.043Z,101770.22
2022-11-26T11:57:58.373Z,101771.34
2022-11-26T11:59:06.857Z,101769.63
2022-11-26T12:00:13.485Z,101773.53
2022-11-26T12:01:30.718Z,101780.47
2022-11-26T12:02:50.681Z,101781.84
2022-11-26T12:03:52.182Z,101775.63
2022-11-26T12:04:57.064Z,101778.19
2022-11-26T12:06:04.736Z,101773.34
2022-11-26T12:07:28.197Z,101771.13
2022-11-26T12:08:49.222Z,101773.09
2022-11-26T12:10:09.705Z,101774.69
2022-11-26T12:11:35.054Z,101770.91
2022-11-26T12:12:59.803Z,101770.22
2022-11-26T12:14:03.106Z,101775.19
2022-11-26T12:15:10.522Z,101772.16
2022-11-26T12:16:12.411Z,101769.59